H203 — WDJ4962 — position and weather

sailwx.info

Track history (hours):
 
Tides and Currents Weather Stations Pressure Air Temp Water Temp Dewpoint Dewpoint Depression Visibility Wind Speed Wind Dir Waves Ship Positions

H203

Owner: HNY Ferry Fleet LLC, New York, NY. More information available from US FCC via Universal Licensing System and Coast Guard Vessel Documentation Center.

Last reported at 2017-Oct-18 00:00 UTC. Time now 2017-Oct-18 00:10 UTC.
Position N 40°39' W 074°02'.

Length 26 m.

Type: Passenger vessel. MMSI: 367782880.

Date/timePositionNaut miles runAvg speedWind from/ knotsBaromVisibWave heightAir tempDewpointWater temp
2017-Oct-18 00:00N 40°39' W 074°02'714.1
2017-Oct-17 23:30N 40°34' W 073°55'0 0.8
2017-Oct-17 23:00N 40°34' W 073°56'713.8
2017-Oct-17 22:31N 40°39' W 074°02'0 0.6
2017-Oct-17 22:01N 40°39' W 074°02'714.3
2017-Oct-17 21:30N 40°34' W 073°55'0 0.7
2017-Oct-17 21:00N 40°34' W 073°55'714.5
2017-Oct-17 20:30N 40°39' W 074°02'0 0.2
2017-Oct-17 20:00N 40°39' W 074°02'713.8
2017-Oct-17 19:30N 40°34' W 073°55'0 0.7
2017-Oct-17 19:00N 40°34' W 073°55'714.6
2017-Oct-17 18:30N 40°39' W 074°02'0 0.4
2017-Oct-17 18:01N 40°39' W 074°02'713.6
2017-Oct-17 17:30N 40°34' W 073°56'2 3.4
2017-Oct-17 17:00N 40°34' W 073°54'815.7
2017-Oct-17 16:30N 40°39' W 074°02'1 1.3
2017-Oct-17 16:00N 40°39' W 074°02'612.5
2017-Oct-17 15:30N 40°34' W 073°57'2 3.8
2017-Oct-17 15:00N 40°34' W 073°54'715.0
2017-Oct-17 14:31N 40°39' W 074°02'0 0.3
2017-Oct-17 14:01N 40°39' W 074°02'612.9
2017-Oct-17 13:30N 40°34' W 073°56'1 2.8
2017-Oct-17 13:00N 40°34' W 073°54'714.8
2017-Oct-17 12:30N 40°39' W 074°02'0 0.4
2017-Oct-17 12:01N 40°39' W 074°02'713.1
2017-Oct-17 11:30N 40°34' W 073°56'1 1.9
2017-Oct-17 11:00N 40°34' W 073°55'714.7
2017-Oct-17 10:31N 40°39' W 074°02'0 0.3
2017-Oct-17 10:01N 40°39' W 074°02'713.0
2017-Oct-17 09:30N 40°34' W 073°56'2 3.2
2017-Oct-17 09:00N 40°34' W 073°54'816.4
2017-Oct-17 08:31N 40°40' W 074°01'3 6.1
2017-Oct-17 08:00N 40°42' W 073°58'0 0.0
2017-Oct-17 02:10N 40°42' W 073°58'0 0.3
2017-Oct-17 02:00N 40°42' W 073°58'815.9
2017-Oct-17 01:30N 40°34' W 074°00'713.2
2017-Oct-17 01:00N 40°35' W 073°52'917.9
2017-Oct-17 00:31N 40°39' W 074°02'0 0.2
2017-Oct-17 00:00N 40°39' W 074°02'612.8
2017-Oct-16 23:30N 40°34' W 073°56'2 3.7
2017-Oct-16 23:01N 40°34' W 073°54'714.8
2017-Oct-16 22:31N 40°39' W 074°02'0 0.1
2017-Oct-16 22:00N 40°39' W 074°02'713.7
2017-Oct-16 21:30N 40°34' W 073°55'0 0.9
2017-Oct-16 21:00N 40°34' W 073°55'714.2
2017-Oct-16 20:31N 40°39' W 074°02'0 0.1
2017-Oct-16 20:00N 40°39' W 074°02'713.3
2017-Oct-16 19:30N 40°34' W 073°56'1 3.0
2017-Oct-16 19:00N 40°34' W 073°54'715.1
2017-Oct-16 18:30N 40°39' W 074°02'0 0.1
2017-Oct-16 18:00N 40°39' W 074°02'713.3
2017-Oct-16 17:30N 40°34' W 073°56'3 5.4
2017-Oct-16 17:00N 40°35' W 073°52'816.4
2017-Oct-16 16:31N 40°39' W 074°02'4 8.2
2017-Oct-16 16:00N 40°42' W 073°58'0 0.0
2017-Oct-16 01:50N 40°42' W 073°58'2 4.7
2017-Oct-16 01:30N 40°42' W 074°00'713.3
2017-Oct-16 01:00N 40°36' W 074°02'918.4
2017-Oct-16 00:31N 40°35' W 073°50'918.7
2017-Oct-16 00:00N 40°36' W 074°02'612.7
2017-Oct-15 23:31N 40°42' W 074°00'713.5
2017-Oct-15 23:01N 40°36' W 074°02'916.9
2017-Oct-15 22:29N 40°35' W 073°50'920.1
2017-Oct-15 22:01N 40°36' W 074°02'612.6
2017-Oct-15 21:31N 40°42' W 074°00'713.8
2017-Oct-15 21:01N 40°35' W 074°02'916.5
2017-Oct-15 20:28N 40°35' W 073°50'1020.6
2017-Oct-15 20:00N 40°36' W 074°02'611.9
2017-Oct-15 19:30N 40°42' W 074°00'815.4
2017-Oct-15 19:00N 40°35' W 074°01'916.5
2017-Oct-15 18:29N 40°35' W 073°50'1020.3
2017-Oct-15 18:00N 40°36' W 074°03'612.0
2017-Oct-15 17:31N 40°42' W 074°00'816.0
2017-Oct-15 17:01N 40°34' W 074°01'816.4
2017-Oct-15 16:30N 40°35' W 073°50'1019.4
2017-Oct-15 16:00N 40°37' W 074°02'611.7
2017-Oct-15 15:30N 40°42' W 074°00'713.0
2017-Oct-15 15:00N 40°36' W 074°02'2 1.7
2017-Oct-15 14:00N 40°34' W 074°01'815.8
2017-Oct-15 13:31N 40°42' W 074°00'611.9
2017-Oct-15 13:00N 40°36' W 074°02'1018.6
2017-Oct-15 12:30N 40°35' W 073°50'817.0
2017-Oct-15 12:01N 40°34' W 074°01'816.0
2017-Oct-15 11:31N 40°42' W 074°00'510.9
2017-Oct-15 11:01N 40°37' W 074°03'1019.2
2017-Oct-15 10:30N 40°35' W 073°50'612.9
2017-Oct-15 10:00N 40°34' W 073°58'917.4
2017-Oct-15 09:31N 40°42' W 073°59'1 0.1
2017-Oct-15 03:48N 40°42' W 073°58'2 6.7
2017-Oct-15 03:31N 40°41' W 074°01'815.0
2017-Oct-15 03:00N 40°34' W 073°58'510.8
2017-Oct-15 02:30N 40°35' W 073°51'918.2
2017-Oct-15 02:01N 40°37' W 074°03'611.3
2017-Oct-15 01:31N 40°42' W 074°00'713.9
2017-Oct-15 01:01N 40°35' W 074°02'917.4
2017-Oct-15 00:30N 40°35' W 073°50'817.0
2017-Oct-15 00:01N 40°34' W 074°01'815.6
2017-Oct-14 23:30N 40°42' W 074°00'612.9
2017-Oct-14 23:00N 40°36' W 074°02'917.8
2017-Oct-14 22:30N 40°35' W 073°50'919.0
2017-Oct-14 22:01N 40°36' W 074°02'612.6
2017-Oct-14 21:30N 40°42' W 074°00'613.1
2017-Oct-14 21:00N 40°36' W 074°02'917.8
2017-Oct-14 20:29N 40°35' W 073°50'918.3
2017-Oct-14 20:00N 40°36' W 074°02'713.8
2017-Oct-14 19:30N 40°42' W 074°00'714.4
2017-Oct-14 19:00N 40°35' W 074°01'916.5
2017-Oct-14 18:29N 40°35' W 073°50'919.3
2017-Oct-14 18:00N 40°36' W 074°02'612.9
2017-Oct-14 17:30N 40°42' W 074°00'612.2
2017-Oct-14 17:00N 40°36' W 074°02'918.3
2017-Oct-14 16:29N 40°35' W 073°50'816.9
2017-Oct-14 16:00N 40°34' W 074°00'815.9
2017-Oct-14 15:30N 40°42' W 074°00'611.5
2017-Oct-14 15:00N 40°37' W 074°03'1019.4
2017-Oct-14 14:30N 40°35' W 073°50'816.3
2017-Oct-14 14:00N 40°34' W 074°01'816.2
2017-Oct-14 13:30N 40°42' W 074°00'611.2
2017-Oct-14 13:00N 40°37' W 074°03'1019.2
2017-Oct-14 12:30N 40°35' W 073°50'815.6
2017-Oct-14 12:00N 40°34' W 074°00'816.7
2017-Oct-14 11:31N 40°42' W 074°00'713.6
2017-Oct-14 11:00N 40°35' W 074°02'918.1
2017-Oct-14 10:30N 40°35' W 073°50'918.8
2017-Oct-14 10:00N 40°36' W 074°02'713.4
2017-Oct-14 09:31N 40°42' W 073°58'0 0.0
2017-Oct-14 02:25N 40°42' W 073°58'3 8.0
2017-Oct-14 02:00N 40°40' W 074°01'815.7
2017-Oct-14 01:31N 40°34' W 073°54'1 2.9
2017-Oct-14 01:00N 40°34' W 073°56'714.0
2017-Oct-14 00:30N 40°39' W 074°02'1 1.2
2017-Oct-14 00:00N 40°39' W 074°02'815.9
2017-Oct-13 23:30N 40°35' W 073°53'3 6.4
2017-Oct-13 23:01N 40°34' W 073°57'712.9
2017-Oct-13 22:30N 40°39' W 074°02'0 0.8
2017-Oct-13 22:00N 40°39' W 074°02'815.3
2017-Oct-13 21:30N 40°34' W 073°53'3 6.6
2017-Oct-13 21:00N 40°34' W 073°58'612.0
2017-Oct-13 20:30N 40°39' W 074°02'0 0.5
2017-Oct-13 20:00N 40°39' W 074°02'714.3
2017-Oct-13 19:30N 40°34' W 073°55'1 2.7
2017-Oct-13 19:00N 40°34' W 073°56'713.0
2017-Oct-13 18:30N 40°39' W 074°02'0 0.4
2017-Oct-13 18:00N 40°39' W 074°02'714.4
2017-Oct-13 17:30N 40°34' W 073°54'2 3.6
2017-Oct-13 17:01N 40°34' W 073°57'6 6.1
2017-Oct-13 16:00N 40°39' W 074°02'713.5
2017-Oct-13 15:30N 40°34' W 073°56'2 4.8
2017-Oct-13 15:00N 40°34' W 073°53'815.4
2017-Oct-13 14:30N 40°39' W 074°02'0 0.0
2017-Oct-13 14:00N 40°39' W 074°02'713.5
2017-Oct-13 13:30N 40°34' W 073°56'1 2.1
2017-Oct-13 13:00N 40°34' W 073°55'714.3
2017-Oct-13 12:30N 40°39' W 074°02'0 0.3
2017-Oct-13 12:00N 40°39' W 074°02'712.8
2017-Oct-13 11:29N 40°34' W 073°56'3 5.2
2017-Oct-13 11:00N 40°34' W 073°53'816.0
2017-Oct-13 10:31N 40°39' W 074°02'0 0.0
2017-Oct-13 10:00N 40°39' W 074°02'713.5
2017-Oct-13 09:30N 40°34' W 073°56'1 2.5
2017-Oct-13 09:00N 40°34' W 073°54'816.5
2017-Oct-13 08:30N 40°40' W 074°01'3 5.6
2017-Oct-13 08:00N 40°42' W 073°58'0 0.0
2017-Oct-13 07:30N 40°42' W 073°58'0 0.0
2017-Oct-13 02:14N 40°42' W 073°58'1 6.2
2017-Oct-13 02:00N 40°42' W 074°00'917.2
2017-Oct-13 01:30N 40°34' W 073°57'2 4.3
2017-Oct-13 00:59N 40°34' W 073°54'815.5
2017-Oct-13 00:30N 40°39' W 074°02'0 0.0
2017-Oct-13 00:00N 40°39' W 074°02'612.5
2017-Oct-12 23:30N 40°34' W 073°57'2 3.0
2017-Oct-12 23:00N 40°34' W 073°55'714.3
2017-Oct-12 22:30N 40°39' W 074°02'0 0.2
2017-Oct-12 22:00N 40°39' W 074°02'613.1
2017-Oct-12 21:30N 40°34' W 073°56'2 3.2
2017-Oct-12 21:00N 40°34' W 073°54'714.8
2017-Oct-12 20:30N 40°39' W 074°02'0 0.1
2017-Oct-12 20:00N 40°39' W 074°02'713.0
2017-Oct-12 19:29N 40°34' W 073°56'2 3.9
2017-Oct-12 19:00N 40°34' W 073°53'815.4
2017-Oct-12 18:30N 40°39' W 074°02'0 0.0
2017-Oct-12 18:00N 40°39' W 074°02'713.4
2017-Oct-12 17:30N 40°34' W 073°56'1 1.6
2017-Oct-12 17:00N 40°34' W 073°55'714.2
2017-Oct-12 16:30N 40°39' W 074°02'0 0.2
2017-Oct-12 16:00N 40°39' W 074°02'714.0
2017-Oct-12 15:30N 40°34' W 073°55'0 0.6
2017-Oct-12 15:00N 40°34' W 073°55'713.9
2017-Oct-12 14:30N 40°39' W 074°02'0 0.0
2017-Oct-12 14:00N 40°39' W 074°02'713.4
2017-Oct-12 13:29N 40°34' W 073°55'1 2.6
2017-Oct-12 13:00N 40°34' W 073°54'815.1
2017-Oct-12 12:30N 40°39' W 074°02'0 0.0
2017-Oct-12 12:00N 40°39' W 074°02'613.0
2017-Oct-12 11:30N 40°34' W 073°56'2 4.0
2017-Oct-12 11:00N 40°34' W 073°54'815.4
2017-Oct-12 10:30N 40°39' W 074°02'0 0.0
2017-Oct-12 10:00N 40°39' W 074°02'612.8
2017-Oct-12 09:30N 40°34' W 073°57'3 5.7
2017-Oct-12 09:00N 40°34' W 073°53'816.3
2017-Oct-12 08:30N 40°40' W 074°01'3 6.6
2017-Oct-12 08:00N 40°42' W 073°58'0 0.0
2017-Oct-12 02:33N 40°42' W 073°58'0 0.1
2017-Oct-12 02:29N 40°42' W 073°58'613.2
2017-Oct-12 02:00N 40°37' W 074°02'816.3
2017-Oct-12 01:30N 40°35' W 073°52'4 8.7
2017-Oct-12 01:00N 40°34' W 073°57'612.2
2017-Oct-12 00:30N 40°39' W 074°02'0 0.5
2017-Oct-12 00:00N 40°39' W 074°02'713.9
2017-Oct-11 23:30N 40°34' W 073°55'1 1.2
2017-Oct-11 23:00N 40°34' W 073°55'713.7
2017-Oct-11 22:30N 40°39' W 074°02'0 0.2
2017-Oct-11 22:00N 40°39' W 074°02'612.5
2017-Oct-11 21:30N 40°34' W 073°57'1 1.2
2017-Oct-11 21:00N 40°34' W 073°56'714.0
2017-Oct-11 20:30N 40°39' W 074°02'0 0.2
2017-Oct-11 20:01N 40°39' W 074°02'713.4
2017-Oct-11 19:30N 40°34' W 073°56'0 0.8
2017-Oct-11 19:00N 40°34' W 073°55'714.3
2017-Oct-11 18:30N 40°39' W 074°02'0 0.2
2017-Oct-11 18:01N 40°39' W 074°02'712.8
2017-Oct-11 17:30N 40°34' W 073°56'1 2.6
2017-Oct-11 17:00N 40°34' W 073°55'3 0.2
2017-Oct-11 00:00N 40°34' W 073°58'4 8.5
2017-Oct-10 23:30N 40°35' W 073°53'816.2
2017-Oct-10 23:01N 40°39' W 074°02'3 5.1
2017-Oct-10 22:31N 40°41' W 074°01'714.4
2017-Oct-10 22:01N 40°34' W 074°00'714.6
2017-Oct-10 21:30N 40°35' W 073°50'1019.7
2017-Oct-10 21:01N 40°38' W 074°02'4 8.6
2017-Oct-10 20:30N 40°42' W 074°00'612.1
2017-Oct-10 20:00N 40°36' W 074°02'1018.2
2017-Oct-10 19:29N 40°35' W 073°50'817.2
2017-Oct-10 19:00N 40°34' W 074°01'816.0
2017-Oct-10 18:30N 40°42' W 074°00'5 9.9
2017-Oct-10 18:00N 40°38' W 074°03'1019.7
2017-Oct-10 17:30N 40°35' W 073°50'713.2
2017-Oct-10 17:00N 40°34' W 073°59'612.8
2017-Oct-10 16:31N 40°40' W 074°01'1 2.5
2017-Oct-10 16:01N 40°39' W 074°02'816.3
2017-Oct-10 15:31N 40°35' W 073°52'1 2.7
2017-Oct-10 15:00N 40°34' W 073°54'7 7.4
2017-Oct-10 14:00N 40°39' W 074°02'713.5
2017-Oct-10 13:30N 40°34' W 073°55'0 0.3
2017-Oct-10 13:00N 40°34' W 073°55'714.3
2017-Oct-10 12:30N 40°39' W 074°02'0 0.4
2017-Oct-10 12:01N 40°39' W 074°02'713.5
2017-Oct-10 11:30N 40°34' W 073°56'1 2.8
2017-Oct-10 11:00N 40°34' W 073°54'815.0
2017-Oct-10 10:30N 40°39' W 074°02'0 0.0
2017-Oct-10 10:00N 40°39' W 074°02'612.7
2017-Oct-10 09:30N 40°34' W 073°56'2 3.7
2017-Oct-10 09:00N 40°34' W 073°54'917.4
2017-Oct-10 08:31N 40°41' W 074°01'3 5.1
2017-Oct-10 08:00N 40°42' W 073°58'0 0.0
2017-Oct-09 01:54N 40°42' W 073°58'2 3.9
2017-Oct-09 01:31N 40°42' W 074°00'612.2
2017-Oct-09 01:01N 40°36' W 074°02'1018.5
2017-Oct-09 00:30N 40°35' W 073°50'816.2
2017-Oct-09 00:00N 40°34' W 074°00'816.1
2017-Oct-08 23:30N 40°42' W 074°00'612.9
2017-Oct-08 23:00N 40°36' W 074°02'917.2
2017-Oct-08 22:29N 40°35' W 073°50'1020.5
2017-Oct-08 22:00N 40°38' W 074°03'3 6.7
2017-Oct-08 21:31N 40°41' W 074°01'713.4
2017-Oct-08 21:00N 40°34' W 074°01'816.3
2017-Oct-08 20:30N 40°35' W 073°50'919.0
2017-Oct-08 20:00N 40°36' W 074°02'612.5
2017-Oct-08 19:30N 40°42' W 074°00'713.3
2017-Oct-08 18:59N 40°36' W 074°02'918.3
2017-Oct-08 18:30N 40°35' W 073°50'817.1
2017-Oct-08 18:00N 40°34' W 074°01'815.5
2017-Oct-08 17:30N 40°42' W 074°00'4 1.7
2017-Oct-08 15:05N 40°38' W 074°02'218.4
2017-Oct-08 15:00N 40°37' W 074°03'1018.0
2017-Oct-08 14:28N 40°35' W 073°50'919.7
2017-Oct-08 14:00N 40°35' W 074°02'2 1.7
2017-Oct-08 13:00N 40°37' W 074°03'1020.0
2017-Oct-08 12:30N 40°35' W 073°50'1110.6
2017-Oct-08 11:30N 40°42' W 074°00'812.5
2017-Oct-08 10:51N 40°34' W 073°60'720.9
2017-Oct-08 10:29N 40°35' W 073°50'815.9
2017-Oct-08 10:00N 40°34' W 074°00'813.4
2017-Oct-08 09:23N 40°42' W 073°58'0 0.0
2017-Oct-08 09:00N 40°42' W 073°58'  
Track history (hours):
 
Tides and Currents Weather Stations Pressure Air Temp Water Temp Dewpoint Dewpoint Depression Visibility Wind Speed Wind Dir Waves Ship Positions

H203

Owner: HNY Ferry Fleet LLC, New York, NY. More information available from US FCC via Universal Licensing System and Coast Guard Vessel Documentation Center.

Last reported at 2017-Oct-18 00:00 UTC. Time now 2017-Oct-18 00:10 UTC.
Position N 40°39' W 074°02'.

Length 26 m.

Type: Passenger vessel. MMSI: 367782880.

Date/timePositionNaut miles runAvg speedWind from/ knotsBaromVisibWave heightAir tempDewpointWater temp
2017-Oct-18 00:00N 40°39' W 074°02'714.1
2017-Oct-17 23:30N 40°34' W 073°55'0 0.8
2017-Oct-17 23:00N 40°34' W 073°56'713.8
2017-Oct-17 22:31N 40°39' W 074°02'0 0.6
2017-Oct-17 22:01N 40°39' W 074°02'714.3
2017-Oct-17 21:30N 40°34' W 073°55'0 0.7
2017-Oct-17 21:00N 40°34' W 073°55'714.5
2017-Oct-17 20:30N 40°39' W 074°02'0 0.2
2017-Oct-17 20:00N 40°39' W 074°02'713.8
2017-Oct-17 19:30N 40°34' W 073°55'0 0.7
2017-Oct-17 19:00N 40°34' W 073°55'714.6
2017-Oct-17 18:30N 40°39' W 074°02'0 0.4
2017-Oct-17 18:01N 40°39' W 074°02'713.6
2017-Oct-17 17:30N 40°34' W 073°56'2 3.4
2017-Oct-17 17:00N 40°34' W 073°54'815.7
2017-Oct-17 16:30N 40°39' W 074°02'1 1.3
2017-Oct-17 16:00N 40°39' W 074°02'612.5
2017-Oct-17 15:30N 40°34' W 073°57'2 3.8
2017-Oct-17 15:00N 40°34' W 073°54'715.0
2017-Oct-17 14:31N 40°39' W 074°02'0 0.3
2017-Oct-17 14:01N 40°39' W 074°02'612.9
2017-Oct-17 13:30N 40°34' W 073°56'1 2.8
2017-Oct-17 13:00N 40°34' W 073°54'714.8
2017-Oct-17 12:30N 40°39' W 074°02'0 0.4
2017-Oct-17 12:01N 40°39' W 074°02'713.1
2017-Oct-17 11:30N 40°34' W 073°56'1 1.9
2017-Oct-17 11:00N 40°34' W 073°55'714.7
2017-Oct-17 10:31N 40°39' W 074°02'0 0.3
2017-Oct-17 10:01N 40°39' W 074°02'713.0
2017-Oct-17 09:30N 40°34' W 073°56'2 3.2
2017-Oct-17 09:00N 40°34' W 073°54'816.4
2017-Oct-17 08:31N 40°40' W 074°01'3 6.1
2017-Oct-17 08:00N 40°42' W 073°58'0 0.0
2017-Oct-17 02:10N 40°42' W 073°58'0 0.3
2017-Oct-17 02:00N 40°42' W 073°58'815.9
2017-Oct-17 01:30N 40°34' W 074°00'713.2
2017-Oct-17 01:00N 40°35' W 073°52'917.9
2017-Oct-17 00:31N 40°39' W 074°02'0 0.2
2017-Oct-17 00:00N 40°39' W 074°02'612.8
2017-Oct-16 23:30N 40°34' W 073°56'2 3.7
2017-Oct-16 23:01N 40°34' W 073°54'714.8
2017-Oct-16 22:31N 40°39' W 074°02'0 0.1
2017-Oct-16 22:00N 40°39' W 074°02'713.7
2017-Oct-16 21:30N 40°34' W 073°55'0 0.9
2017-Oct-16 21:00N 40°34' W 073°55'714.2
2017-Oct-16 20:31N 40°39' W 074°02'0 0.1
2017-Oct-16 20:00N 40°39' W 074°02'713.3
2017-Oct-16 19:30N 40°34' W 073°56'1 3.0
2017-Oct-16 19:00N 40°34' W 073°54'715.1
2017-Oct-16 18:30N 40°39' W 074°02'0 0.1
2017-Oct-16 18:00N 40°39' W 074°02'713.3
2017-Oct-16 17:30N 40°34' W 073°56'3 5.4
2017-Oct-16 17:00N 40°35' W 073°52'816.4
2017-Oct-16 16:31N 40°39' W 074°02'4 8.2
2017-Oct-16 16:00N 40°42' W 073°58'0 0.0
2017-Oct-16 01:50N 40°42' W 073°58'2 4.7
2017-Oct-16 01:30N 40°42' W 074°00'713.3
2017-Oct-16 01:00N 40°36' W 074°02'918.4
2017-Oct-16 00:31N 40°35' W 073°50'918.7
2017-Oct-16 00:00N 40°36' W 074°02'612.7
2017-Oct-15 23:31N 40°42' W 074°00'713.5
2017-Oct-15 23:01N 40°36' W 074°02'916.9
2017-Oct-15 22:29N 40°35' W 073°50'920.1
2017-Oct-15 22:01N 40°36' W 074°02'612.6
2017-Oct-15 21:31N 40°42' W 074°00'713.8
2017-Oct-15 21:01N 40°35' W 074°02'916.5
2017-Oct-15 20:28N 40°35' W 073°50'1020.6
2017-Oct-15 20:00N 40°36' W 074°02'611.9
2017-Oct-15 19:30N 40°42' W 074°00'815.4
2017-Oct-15 19:00N 40°35' W 074°01'916.5
2017-Oct-15 18:29N 40°35' W 073°50'1020.3
2017-Oct-15 18:00N 40°36' W 074°03'612.0
2017-Oct-15 17:31N 40°42' W 074°00'816.0
2017-Oct-15 17:01N 40°34' W 074°01'816.4
2017-Oct-15 16:30N 40°35' W 073°50'1019.4
2017-Oct-15 16:00N 40°37' W 074°02'611.7
2017-Oct-15 15:30N 40°42' W 074°00'713.0
2017-Oct-15 15:00N 40°36' W 074°02'2 1.7
2017-Oct-15 14:00N 40°34' W 074°01'815.8
2017-Oct-15 13:31N 40°42' W 074°00'611.9
2017-Oct-15 13:00N 40°36' W 074°02'1018.6
2017-Oct-15 12:30N 40°35' W 073°50'817.0
2017-Oct-15 12:01N 40°34' W 074°01'816.0
2017-Oct-15 11:31N 40°42' W 074°00'510.9
2017-Oct-15 11:01N 40°37' W 074°03'1019.2
2017-Oct-15 10:30N 40°35' W 073°50'612.9
2017-Oct-15 10:00N 40°34' W 073°58'917.4
2017-Oct-15 09:31N 40°42' W 073°59'1 0.1
2017-Oct-15 03:48N 40°42' W 073°58'2 6.7
2017-Oct-15 03:31N 40°41' W 074°01'815.0
2017-Oct-15 03:00N 40°34' W 073°58'510.8
2017-Oct-15 02:30N 40°35' W 073°51'918.2
2017-Oct-15 02:01N 40°37' W 074°03'611.3
2017-Oct-15 01:31N 40°42' W 074°00'713.9
2017-Oct-15 01:01N 40°35' W 074°02'917.4
2017-Oct-15 00:30N 40°35' W 073°50'817.0
2017-Oct-15 00:01N 40°34' W 074°01'815.6
2017-Oct-14 23:30N 40°42' W 074°00'612.9
2017-Oct-14 23:00N 40°36' W 074°02'917.8
2017-Oct-14 22:30N 40°35' W 073°50'919.0
2017-Oct-14 22:01N 40°36' W 074°02'612.6
2017-Oct-14 21:30N 40°42' W 074°00'613.1
2017-Oct-14 21:00N 40°36' W 074°02'917.8
2017-Oct-14 20:29N 40°35' W 073°50'918.3
2017-Oct-14 20:00N 40°36' W 074°02'713.8
2017-Oct-14 19:30N 40°42' W 074°00'714.4
2017-Oct-14 19:00N 40°35' W 074°01'916.5
2017-Oct-14 18:29N 40°35' W 073°50'919.3
2017-Oct-14 18:00N 40°36' W 074°02'612.9
2017-Oct-14 17:30N 40°42' W 074°00'612.2
2017-Oct-14 17:00N 40°36' W 074°02'918.3
2017-Oct-14 16:29N 40°35' W 073°50'816.9
2017-Oct-14 16:00N 40°34' W 074°00'815.9
2017-Oct-14 15:30N 40°42' W 074°00'611.5
2017-Oct-14 15:00N 40°37' W 074°03'1019.4
2017-Oct-14 14:30N 40°35' W 073°50'816.3
2017-Oct-14 14:00N 40°34' W 074°01'816.2
2017-Oct-14 13:30N 40°42' W 074°00'611.2
2017-Oct-14 13:00N 40°37' W 074°03'1019.2
2017-Oct-14 12:30N 40°35' W 073°50'815.6
2017-Oct-14 12:00N 40°34' W 074°00'816.7
2017-Oct-14 11:31N 40°42' W 074°00'713.6
2017-Oct-14 11:00N 40°35' W 074°02'918.1
2017-Oct-14 10:30N 40°35' W 073°50'918.8
2017-Oct-14 10:00N 40°36' W 074°02'713.4
2017-Oct-14 09:31N 40°42' W 073°58'0 0.0
2017-Oct-14 02:25N 40°42' W 073°58'3 8.0
2017-Oct-14 02:00N 40°40' W 074°01'815.7
2017-Oct-14 01:31N 40°34' W 073°54'1 2.9
2017-Oct-14 01:00N 40°34' W 073°56'714.0
2017-Oct-14 00:30N 40°39' W 074°02'1 1.2
2017-Oct-14 00:00N 40°39' W 074°02'815.9
2017-Oct-13 23:30N 40°35' W 073°53'3 6.4
2017-Oct-13 23:01N 40°34' W 073°57'712.9
2017-Oct-13 22:30N 40°39' W 074°02'0 0.8
2017-Oct-13 22:00N 40°39' W 074°02'815.3
2017-Oct-13 21:30N 40°34' W 073°53'3 6.6
2017-Oct-13 21:00N 40°34' W 073°58'612.0
2017-Oct-13 20:30N 40°39' W 074°02'0 0.5
2017-Oct-13 20:00N 40°39' W 074°02'714.3
2017-Oct-13 19:30N 40°34' W 073°55'1 2.7
2017-Oct-13 19:00N 40°34' W 073°56'713.0
2017-Oct-13 18:30N 40°39' W 074°02'0 0.4
2017-Oct-13 18:00N 40°39' W 074°02'714.4
2017-Oct-13 17:30N 40°34' W 073°54'2 3.6
2017-Oct-13 17:01N 40°34' W 073°57'6 6.1
2017-Oct-13 16:00N 40°39' W 074°02'713.5
2017-Oct-13 15:30N 40°34' W 073°56'2 4.8
2017-Oct-13 15:00N 40°34' W 073°53'815.4
2017-Oct-13 14:30N 40°39' W 074°02'0 0.0
2017-Oct-13 14:00N 40°39' W 074°02'713.5
2017-Oct-13 13:30N 40°34' W 073°56'1 2.1
2017-Oct-13 13:00N 40°34' W 073°55'714.3
2017-Oct-13 12:30N 40°39' W 074°02'0 0.3
2017-Oct-13 12:00N 40°39' W 074°02'712.8
2017-Oct-13 11:29N 40°34' W 073°56'3 5.2
2017-Oct-13 11:00N 40°34' W 073°53'816.0
2017-Oct-13 10:31N 40°39' W 074°02'0 0.0
2017-Oct-13 10:00N 40°39' W 074°02'713.5
2017-Oct-13 09:30N 40°34' W 073°56'1 2.5
2017-Oct-13 09:00N 40°34' W 073°54'816.5
2017-Oct-13 08:30N 40°40' W 074°01'3 5.6
2017-Oct-13 08:00N 40°42' W 073°58'0 0.0
2017-Oct-13 07:30N 40°42' W 073°58'0 0.0
2017-Oct-13 02:14N 40°42' W 073°58'1 6.2
2017-Oct-13 02:00N 40°42' W 074°00'917.2
2017-Oct-13 01:30N 40°34' W 073°57'2 4.3
2017-Oct-13 00:59N 40°34' W 073°54'815.5
2017-Oct-13 00:30N 40°39' W 074°02'0 0.0
2017-Oct-13 00:00N 40°39' W 074°02'612.5
2017-Oct-12 23:30N 40°34' W 073°57'2 3.0
2017-Oct-12 23:00N 40°34' W 073°55'714.3
2017-Oct-12 22:30N 40°39' W 074°02'0 0.2
2017-Oct-12 22:00N 40°39' W 074°02'613.1
2017-Oct-12 21:30N 40°34' W 073°56'2 3.2
2017-Oct-12 21:00N 40°34' W 073°54'714.8
2017-Oct-12 20:30N 40°39' W 074°02'0 0.1
2017-Oct-12 20:00N 40°39' W 074°02'713.0
2017-Oct-12 19:29N 40°34' W 073°56'2 3.9
2017-Oct-12 19:00N 40°34' W 073°53'815.4
2017-Oct-12 18:30N 40°39' W 074°02'0 0.0
2017-Oct-12 18:00N 40°39' W 074°02'713.4
2017-Oct-12 17:30N 40°34' W 073°56'1 1.6
2017-Oct-12 17:00N 40°34' W 073°55'714.2
2017-Oct-12 16:30N 40°39' W 074°02'0 0.2
2017-Oct-12 16:00N 40°39' W 074°02'714.0
2017-Oct-12 15:30N 40°34' W 073°55'0 0.6
2017-Oct-12 15:00N 40°34' W 073°55'713.9
2017-Oct-12 14:30N 40°39' W 074°02'0 0.0
2017-Oct-12 14:00N 40°39' W 074°02'713.4
2017-Oct-12 13:29N 40°34' W 073°55'1 2.6
2017-Oct-12 13:00N 40°34' W 073°54'815.1
2017-Oct-12 12:30N 40°39' W 074°02'0 0.0
2017-Oct-12 12:00N 40°39' W 074°02'613.0
2017-Oct-12 11:30N 40°34' W 073°56'2 4.0
2017-Oct-12 11:00N 40°34' W 073°54'815.4
2017-Oct-12 10:30N 40°39' W 074°02'0 0.0
2017-Oct-12 10:00N 40°39' W 074°02'612.8
2017-Oct-12 09:30N 40°34' W 073°57'3 5.7
2017-Oct-12 09:00N 40°34' W 073°53'816.3
2017-Oct-12 08:30N 40°40' W 074°01'3 6.6
2017-Oct-12 08:00N 40°42' W 073°58'0 0.0
2017-Oct-12 02:33N 40°42' W 073°58'0 0.1
2017-Oct-12 02:29N 40°42' W 073°58'613.2
2017-Oct-12 02:00N 40°37' W 074°02'816.3
2017-Oct-12 01:30N 40°35' W 073°52'4 8.7
2017-Oct-12 01:00N 40°34' W 073°57'612.2
2017-Oct-12 00:30N 40°39' W 074°02'0 0.5
2017-Oct-12 00:00N 40°39' W 074°02'713.9
2017-Oct-11 23:30N 40°34' W 073°55'1 1.2
2017-Oct-11 23:00N 40°34' W 073°55'713.7
2017-Oct-11 22:30N 40°39' W 074°02'0 0.2
2017-Oct-11 22:00N 40°39' W 074°02'612.5
2017-Oct-11 21:30N 40°34' W 073°57'1 1.2
2017-Oct-11 21:00N 40°34' W 073°56'714.0
2017-Oct-11 20:30N 40°39' W 074°02'0 0.2
2017-Oct-11 20:01N 40°39' W 074°02'713.4
2017-Oct-11 19:30N 40°34' W 073°56'0 0.8
2017-Oct-11 19:00N 40°34' W 073°55'714.3
2017-Oct-11 18:30N 40°39' W 074°02'0 0.2
2017-Oct-11 18:01N 40°39' W 074°02'712.8
2017-Oct-11 17:30N 40°34' W 073°56'1 2.6
2017-Oct-11 17:00N 40°34' W 073°55'3 0.2
2017-Oct-11 00:00N 40°34' W 073°58'4 8.5
2017-Oct-10 23:30N 40°35' W 073°53'816.2
2017-Oct-10 23:01N 40°39' W 074°02'3 5.1
2017-Oct-10 22:31N 40°41' W 074°01'714.4
2017-Oct-10 22:01N 40°34' W 074°00'714.6
2017-Oct-10 21:30N 40°35' W 073°50'1019.7
2017-Oct-10 21:01N 40°38' W 074°02'4 8.6
2017-Oct-10 20:30N 40°42' W 074°00'612.1
2017-Oct-10 20:00N 40°36' W 074°02'1018.2
2017-Oct-10 19:29N 40°35' W 073°50'817.2
2017-Oct-10 19:00N 40°34' W 074°01'816.0
2017-Oct-10 18:30N 40°42' W 074°00'5 9.9
2017-Oct-10 18:00N 40°38' W 074°03'1019.7
2017-Oct-10 17:30N 40°35' W 073°50'713.2
2017-Oct-10 17:00N 40°34' W 073°59'612.8
2017-Oct-10 16:31N 40°40' W 074°01'1 2.5
2017-Oct-10 16:01N 40°39' W 074°02'816.3
2017-Oct-10 15:31N 40°35' W 073°52'1 2.7
2017-Oct-10 15:00N 40°34' W 073°54'7 7.4
2017-Oct-10 14:00N 40°39' W 074°02'713.5
2017-Oct-10 13:30N 40°34' W 073°55'0 0.3
2017-Oct-10 13:00N 40°34' W 073°55'714.3
2017-Oct-10 12:30N 40°39' W 074°02'0 0.4
2017-Oct-10 12:01N 40°39' W 074°02'713.5
2017-Oct-10 11:30N 40°34' W 073°56'1 2.8
2017-Oct-10 11:00N 40°34' W 073°54'815.0
2017-Oct-10 10:30N 40°39' W 074°02'0 0.0
2017-Oct-10 10:00N 40°39' W 074°02'612.7
2017-Oct-10 09:30N 40°34' W 073°56'2 3.7
2017-Oct-10 09:00N 40°34' W 073°54'917.4
2017-Oct-10 08:31N 40°41' W 074°01'3 5.1
2017-Oct-10 08:00N 40°42' W 073°58'0 0.0
2017-Oct-09 01:54N 40°42' W 073°58'2 3.9
2017-Oct-09 01:31N 40°42' W 074°00'612.2
2017-Oct-09 01:01N 40°36' W 074°02'1018.5
2017-Oct-09 00:30N 40°35' W 073°50'816.2
2017-Oct-09 00:00N 40°34' W 074°00'816.1
2017-Oct-08 23:30N 40°42' W 074°00'612.9
2017-Oct-08 23:00N 40°36' W 074°02'917.2
2017-Oct-08 22:29N 40°35' W 073°50'1020.5
2017-Oct-08 22:00N 40°38' W 074°03'3 6.7
2017-Oct-08 21:31N 40°41' W 074°01'713.4
2017-Oct-08 21:00N 40°34' W 074°01'816.3
2017-Oct-08 20:30N 40°35' W 073°50'919.0
2017-Oct-08 20:00N 40°36' W 074°02'612.5
2017-Oct-08 19:30N 40°42' W 074°00'713.3
2017-Oct-08 18:59N 40°36' W 074°02'918.3
2017-Oct-08 18:30N 40°35' W 073°50'817.1
2017-Oct-08 18:00N 40°34' W 074°01'815.5
2017-Oct-08 17:30N 40°42' W 074°00'4 1.7
2017-Oct-08 15:05N 40°38' W 074°02'218.4
2017-Oct-08 15:00N 40°37' W 074°03'1018.0
2017-Oct-08 14:28N 40°35' W 073°50'919.7
2017-Oct-08 14:00N 40°35' W 074°02'2 1.7
2017-Oct-08 13:00N 40°37' W 074°03'1020.0
2017-Oct-08 12:30N 40°35' W 073°50'1110.6
2017-Oct-08 11:30N 40°42' W 074°00'812.5
2017-Oct-08 10:51N 40°34' W 073°60'720.9
2017-Oct-08 10:29N 40°35' W 073°50'815.9
2017-Oct-08 10:00N 40°34' W 074°00'813.4
2017-Oct-08 09:23N 40°42' W 073°58'0 0.0
2017-Oct-08 09:00N 40°42' W 073°58'  

Dump ship's entire track history